sensor_id;sensor_type;location;lat;lon;timestamp;pressure;altitude;pressure_sealevel;temperature;humidity
55916;BME280;41826;53.246;-6.670;2023-02-12T00:02:04;103108.50;;;8.33;100.00
55916;BME280;41826;53.246;-6.670;2023-02-12T00:04:30;103119.09;;;8.50;100.00
55916;BME280;41826;53.246;-6.670;2023-02-12T00:06:55;103103.53;;;8.47;100.00
55916;BME280;41826;53.246;-6.670;2023-02-12T00:09:20;103114.06;;;8.25;100.00
55916;BME280;41826;53.246;-6.670;2023-02-12T00:11:46;103111.53;;;8.23;100.00
55916;BME280;41826;53.246;-6.670;2023-02-12T00:14:11;103118.59;;;8.42;100.00
55916;BME280;41826;53.246;-6.670;2023-02-12T00:16:37;103113.97;;;8.28;100.00
55916;BME280;41826;53.246;-6.670;2023-02-12T00:19:02;103110.00;;;8.38;100.00
55916;BME280;41826;53.246;-6.670;2023-02-12T00:21:27;103111.41;;;8.27;100.00
55916;BME280;41826;53.246;-6.670;2023-02-12T00:23:53;103102.91;;;8.21;100.00
55916;BME280;41826;53.246;-6.670;2023-02-12T00:26:20;103105.56;;;8.20;100.00
55916;BME280;41826;53.246;-6.670;2023-02-12T00:28:46;103115.00;;;8.24;100.00
55916;BME280;41826;53.246;-6.670;2023-02-12T00:31:20;103100.09;;;8.26;100.00
55916;BME280;41826;53.246;-6.670;2023-02-12T00:33:45;103104.53;;;8.24;100.00
55916;BME280;41826;53.246;-6.670;2023-02-12T00:36:18;103101.88;;;8.05;100.00
55916;BME280;41826;53.246;-6.670;2023-02-12T00:38:44;103105.41;;;8.04;100.00
55916;BME280;41826;53.246;-6.670;2023-02-12T00:41:10;103103.97;;;7.97;100.00
55916;BME280;41826;53.246;-6.670;2023-02-12T00:43:36;103100.84;;;8.09;100.00
55916;BME280;41826;53.246;-6.670;2023-02-12T00:46:04;103098.28;;;8.08;100.00
55916;BME280;41826;53.246;-6.670;2023-02-12T00:48:32;103097.41;;;7.88;100.00
55916;BME280;41826;53.246;-6.670;2023-02-12T00:50:57;103087.00;;;7.87;100.00
55916;BME280;41826;53.246;-6.670;2023-02-12T00:53:22;103089.41;;;7.91;100.00
55916;BME280;41826;53.246;-6.670;2023-02-12T00:55:48;103084.13;;;7.93;100.00
55916;BME280;41826;53.246;-6.670;2023-02-12T00:58:13;103086.50;;;7.97;100.00
55916;BME280;41826;53.246;-6.670;2023-02-12T01:00:40;103080.63;;;7.92;100.00
55916;BME280;41826;53.246;-6.670;2023-02-12T01:03:06;103075.84;;;7.83;100.00
55916;BME280;41826;53.246;-6.670;2023-02-12T01:05:35;103082.59;;;7.87;100.00
55916;BME280;41826;53.246;-6.670;2023-02-12T01:08:02;103075.63;;;7.88;100.00
55916;BME280;41826;53.246;-6.670;2023-02-12T01:10:27;103064.09;;;7.92;100.00
55916;BME280;41826;53.246;-6.670;2023-02-12T01:12:53;103076.84;;;7.99;100.00
55916;BME280;41826;53.246;-6.670;2023-02-12T01:15:18;103072.50;;;8.19;100.00
55916;BME280;41826;53.246;-6.670;2023-02-12T01:17:44;103063.03;;;8.16;100.00
55916;BME280;41826;53.246;-6.670;2023-02-12T01:20:13;103056.59;;;8.23;100.00
55916;BME280;41826;53.246;-6.670;2023-02-12T01:22:41;103053.81;;;8.08;100.00
55916;BME280;41826;53.246;-6.670;2023-02-12T01:25:07;103049.16;;;7.95;100.00
55916;BME280;41826;53.246;-6.670;2023-02-12T01:27:33;103051.41;;;8.03;100.00
55916;BME280;41826;53.246;-6.670;2023-02-12T01:29:58;103045.19;;;8.06;100.00
55916;BME280;41826;53.246;-6.670;2023-02-12T01:32:23;103054.19;;;8.19;100.00
55916;BME280;41826;53.246;-6.670;2023-02-12T01:34:49;103056.16;;;8.33;100.00
55916;BME280;41826;53.246;-6.670;2023-02-12T01:37:15;103064.41;;;8.44;100.00
55916;BME280;41826;53.246;-6.670;2023-02-12T01:39:40;103072.63;;;8.35;100.00
55916;BME280;41826;53.246;-6.670;2023-02-12T01:42:06;103058.13;;;8.28;100.00
55916;BME280;41826;53.246;-6.670;2023-02-12T01:44:33;103043.91;;;8.14;100.00
55916;BME280;41826;53.246;-6.670;2023-02-12T01:47:04;103048.88;;;8.20;100.00
55916;BME280;41826;53.246;-6.670;2023-02-12T01:49:42;103040.41;;;8.15;100.00
55916;BME280;41826;53.246;-6.670;2023-02-12T01:52:23;103042.94;;;8.17;100.00
55916;BME280;41826;53.246;-6.670;2023-02-12T01:54:53;103029.78;;;8.18;100.00
55916;BME280;41826;53.246;-6.670;2023-02-12T01:57:19;103037.41;;;8.04;100.00
55916;BME280;41826;53.246;-6.670;2023-02-12T01:59:47;103034.09;;;8.19;100.00
55916;BME280;41826;53.246;-6.670;2023-02-12T02:02:16;103030.47;;;8.22;100.00
55916;BME280;41826;53.246;-6.670;2023-02-12T02:04:54;103023.41;;;8.24;100.00
55916;BME280;41826;53.246;-6.670;2023-02-12T02:07:21;103038.72;;;8.33;100.00
55916;BME280;41826;53.246;-6.670;2023-02-12T02:09:47;103031.13;;;8.08;100.00
55916;BME280;41826;53.246;-6.670;2023-02-12T02:12:13;103029.16;;;8.13;100.00
55916;BME280;41826;53.246;-6.670;2023-02-12T02:14:58;103019.16;;;8.02;100.00
55916;BME280;41826;53.246;-6.670;2023-02-12T02:34:42;103035.66;;;8.23;100.00
55916;BME280;41826;53.246;-6.670;2023-02-12T02:37:19;103045.03;;;8.28;100.00
55916;BME280;41826;53.246;-6.670;2023-02-12T02:40:24;103054.97;;;8.40;100.00
55916;BME280;41826;53.246;-6.670;2023-02-12T02:43:08;103059.81;;;8.49;100.00
55916;BME280;41826;53.246;-6.670;2023-02-12T02:45:50;103040.31;;;8.17;100.00
55916;BME280;41826;53.246;-6.670;2023-02-12T02:48:33;103026.69;;;8.10;100.00
55916;BME280;41826;53.246;-6.670;2023-02-12T02:51:23;103027.59;;;8.09;100.00
55916;BME280;41826;53.246;-6.670;2023-02-12T02:54:11;103025.53;;;8.16;100.00
55916;BME280;41826;53.246;-6.670;2023-02-12T02:56:41;103040.94;;;8.22;100.00
55916;BME280;41826;53.246;-6.670;2023-02-12T02:59:16;103043.63;;;8.41;100.00
55916;BME280;41826;53.246;-6.670;2023-02-12T03:01:45;103041.75;;;8.43;100.00
55916;BME280;41826;53.246;-6.670;2023-02-12T03:04:20;103029.22;;;8.12;100.00
55916;BME280;41826;53.246;-6.670;2023-02-12T03:06:57;103020.94;;;8.02;100.00
55916;BME280;41826;53.246;-6.670;2023-02-12T03:09:28;103021.44;;;8.10;100.00
55916;BME280;41826;53.246;-6.670;2023-02-12T03:12:21;103019.88;;;8.06;100.00
55916;BME280;41826;53.246;-6.670;2023-02-12T03:14:53;103035.72;;;8.22;100.00
55916;BME280;41826;53.246;-6.670;2023-02-12T03:17:33;103032.91;;;8.27;100.00
55916;BME280;41826;53.246;-6.670;2023-02-12T03:20:21;103031.06;;;8.29;100.00
55916;BME280;41826;53.246;-6.670;2023-02-12T03:22:54;103040.13;;;8.40;100.00
55916;BME280;41826;53.246;-6.670;2023-02-12T03:25:52;103036.72;;;8.38;100.00
55916;BME280;41826;53.246;-6.670;2023-02-12T03:28:32;103038.97;;;8.27;100.00
55916;BME280;41826;53.246;-6.670;2023-02-12T03:31:02;103022.63;;;8.22;100.00
55916;BME280;41826;53.246;-6.670;2023-02-12T03:36:32;103004.47;;;8.19;100.00
55916;BME280;41826;53.246;-6.670;2023-02-12T03:39:07;103010.81;;;8.32;100.00
55916;BME280;41826;53.246;-6.670;2023-02-12T03:41:41;103008.19;;;8.32;100.00
55916;BME280;41826;53.246;-6.670;2023-02-12T03:44:20;103000.44;;;8.31;100.00
55916;BME280;41826;53.246;-6.670;2023-02-12T03:52:35;103002.75;;;8.37;100.00
55916;BME280;41826;53.246;-6.670;2023-02-12T03:55:01;102990.19;;;8.26;100.00
55916;BME280;41826;53.246;-6.670;2023-02-12T03:57:31;102992.66;;;8.29;100.00
55916;BME280;41826;53.246;-6.670;2023-02-12T04:00:05;102990.19;;;8.26;100.00
55916;BME280;41826;53.246;-6.670;2023-02-12T04:02:33;102982.34;;;8.26;100.00
55916;BME280;41826;53.246;-6.670;2023-02-12T04:05:06;102996.13;;;8.49;100.00
55916;BME280;41826;53.246;-6.670;2023-02-12T04:07:34;103006.72;;;8.45;100.00
55916;BME280;41826;53.246;-6.670;2023-02-12T04:10:01;102994.97;;;8.35;100.00
55916;BME280;41826;53.246;-6.670;2023-02-12T04:15:19;102982.25;;;8.28;100.00
55916;BME280;41826;53.246;-6.670;2023-02-12T04:17:49;102974.84;;;8.18;100.00
55916;BME280;41826;53.246;-6.670;2023-02-12T04:20:27;102990.09;;;8.28;100.00
55916;BME280;41826;53.246;-6.670;2023-02-12T04:23:26;103003.28;;;8.45;100.00
55916;BME280;41826;53.246;-6.670;2023-02-12T04:31:35;102996.56;;;8.20;100.00
55916;BME280;41826;53.246;-6.670;2023-02-12T04:34:25;102999.84;;;8.05;100.00
55916;BME280;41826;53.246;-6.670;2023-02-12T04:37:04;102999.09;;;8.03;100.00
55916;BME280;41826;53.246;-6.670;2023-02-12T04:39:35;103003.25;;;8.07;100.00
55916;BME280;41826;53.246;-6.670;2023-02-12T04:42:04;103006.38;;;8.15;100.00
55916;BME280;41826;53.246;-6.670;2023-02-12T04:44:35;103001.38;;;8.11;100.00
55916;BME280;41826;53.246;-6.670;2023-02-12T04:47:04;103002.34;;;8.08;100.00
55916;BME280;41826;53.246;-6.670;2023-02-12T04:49:30;102997.25;;;8.05;100.00
55916;BME280;41826;53.246;-6.670;2023-02-12T04:51:55;103003.03;;;8.12;100.00
55916;BME280;41826;53.246;-6.670;2023-02-12T04:54:22;102997.66;;;8.15;100.00
55916;BME280;41826;53.246;-6.670;2023-02-12T04:56:48;102997.81;;;8.12;100.00
55916;BME280;41826;53.246;-6.670;2023-02-12T04:59:14;103000.63;;;8.07;100.00
55916;BME280;41826;53.246;-6.670;2023-02-12T05:01:40;103003.84;;;8.14;100.00
55916;BME280;41826;53.246;-6.670;2023-02-12T05:04:07;102993.94;;;8.20;100.00
55916;BME280;41826;53.246;-6.670;2023-02-12T05:06:34;103007.88;;;8.21;100.00
55916;BME280;41826;53.246;-6.670;2023-02-12T05:09:00;103002.06;;;8.14;100.00
55916;BME280;41826;53.246;-6.670;2023-02-12T05:11:26;102997.91;;;8.10;100.00
55916;BME280;41826;53.246;-6.670;2023-02-12T05:13:52;102991.81;;;8.10;100.00
55916;BME280;41826;53.246;-6.670;2023-02-12T05:16:18;102993.50;;;8.11;100.00
55916;BME280;41826;53.246;-6.670;2023-02-12T05:18:44;102992.00;;;8.05;100.00
55916;BME280;41826;53.246;-6.670;2023-02-12T05:21:10;102993.50;;;8.11;100.00
55916;BME280;41826;53.246;-6.670;2023-02-12T05:23:37;102987.97;;;8.17;100.00
55916;BME280;41826;53.246;-6.670;2023-02-12T05:26:06;102988.81;;;8.17;100.00
55916;BME280;41826;53.246;-6.670;2023-02-12T05:28:32;102995.41;;;8.26;100.00
55916;BME280;41826;53.246;-6.670;2023-02-12T05:31:04;102981.28;;;8.11;100.00
55916;BME280;41826;53.246;-6.670;2023-02-12T05:33:30;102986.34;;;8.14;100.00
55916;BME280;41826;53.246;-6.670;2023-02-12T05:36:04;102981.97;;;8.15;100.00
55916;BME280;41826;53.246;-6.670;2023-02-12T05:38:30;102985.53;;;8.14;100.00
55916;BME280;41826;53.246;-6.670;2023-02-12T05:41:01;102976.69;;;8.16;100.00
55916;BME280;41826;53.246;-6.670;2023-02-12T05:43:27;102976.19;;;8.08;100.00
55916;BME280;41826;53.246;-6.670;2023-02-12T05:45:52;102971.22;;;8.21;100.00
55916;BME280;41826;53.246;-6.670;2023-02-12T05:48:17;102968.53;;;8.22;100.00
55916;BME280;41826;53.246;-6.670;2023-02-12T05:50:43;102973.69;;;8.24;100.00
55916;BME280;41826;53.246;-6.670;2023-02-12T05:53:08;102967.16;;;8.15;100.00
55916;BME280;41826;53.246;-6.670;2023-02-12T05:55:33;102961.03;;;8.15;100.00
55916;BME280;41826;53.246;-6.670;2023-02-12T05:57:59;102961.13;;;8.13;100.00
55916;BME280;41826;53.246;-6.670;2023-02-12T06:00:24;102972.13;;;8.20;100.00
55916;BME280;41826;53.246;-6.670;2023-02-12T06:02:50;102974.13;;;8.15;100.00
55916;BME280;41826;53.246;-6.670;2023-02-12T06:05:15;102972.38;;;8.15;100.00
55916;BME280;41826;53.246;-6.670;2023-02-12T06:07:41;102983.13;;;8.28;100.00
55916;BME280;41826;53.246;-6.670;2023-02-12T06:10:07;102986.28;;;8.35;100.00
55916;BME280;41826;53.246;-6.670;2023-02-12T06:12:32;102988.06;;;8.34;100.00
55916;BME280;41826;53.246;-6.670;2023-02-12T06:14:58;102987.25;;;8.32;100.00
55916;BME280;41826;53.246;-6.670;2023-02-12T06:17:23;102984.38;;;8.19;100.00
55916;BME280;41826;53.246;-6.670;2023-02-12T06:19:48;102991.38;;;8.19;100.00
55916;BME280;41826;53.246;-6.670;2023-02-12T06:22:14;102992.38;;;8.16;100.00
55916;BME280;41826;53.246;-6.670;2023-02-12T06:24:39;103002.25;;;8.10;100.00
55916;BME280;41826;53.246;-6.670;2023-02-12T06:27:05;103002.91;;;8.15;100.00
55916;BME280;41826;53.246;-6.670;2023-02-12T06:29:30;103009.34;;;8.27;100.00
55916;BME280;41826;53.246;-6.670;2023-02-12T06:31:56;103006.94;;;8.22;100.00
55916;BME280;41826;53.246;-6.670;2023-02-12T06:34:21;103008.06;;;8.16;100.00
55916;BME280;41826;53.246;-6.670;2023-02-12T06:36:47;103007.03;;;8.20;100.00
55916;BME280;41826;53.246;-6.670;2023-02-12T06:39:14;102996.81;;;8.14;100.00
55916;BME280;41826;53.246;-6.670;2023-02-12T06:41:40;102998.66;;;8.12;100.00
55916;BME280;41826;53.246;-6.670;2023-02-12T06:44:05;102995.47;;;8.24;100.00
55916;BME280;41826;53.246;-6.670;2023-02-12T06:46:34;102994.00;;;8.19;100.00
55916;BME280;41826;53.246;-6.670;2023-02-12T06:48:59;102996.81;;;8.14;100.00
55916;BME280;41826;53.246;-6.670;2023-02-12T06:51:26;102992.00;;;8.05;100.00
55916;BME280;41826;53.246;-6.670;2023-02-12T06:53:53;102985.72;;;8.09;100.00
55916;BME280;41826;53.246;-6.670;2023-02-12T06:56:20;102992.81;;;8.26;100.00
55916;BME280;41826;53.246;-6.670;2023-02-12T06:58:51;102982.50;;;8.23;100.00
55916;BME280;41826;53.246;-6.670;2023-02-12T07:01:20;102985.09;;;8.23;100.00
55916;BME280;41826;53.246;-6.670;2023-02-12T07:03:51;102984.31;;;8.21;100.00
55916;BME280;41826;53.246;-6.670;2023-02-12T07:06:18;102977.47;;;8.18;100.00
55916;BME280;41826;53.246;-6.670;2023-02-12T07:08:43;102981.50;;;8.25;100.00
55916;BME280;41826;53.246;-6.670;2023-02-12T07:11:09;102979.16;;;8.19;100.00
55916;BME280;41826;53.246;-6.670;2023-02-12T07:13:34;102973.28;;;8.14;100.00
55916;BME280;41826;53.246;-6.670;2023-02-12T07:16:08;102974.75;;;8.20;100.00
55916;BME280;41826;53.246;-6.670;2023-02-12T07:18:35;102975.91;;;8.14;100.00
55916;BME280;41826;53.246;-6.670;2023-02-12T07:21:01;102968.69;;;8.19;100.00
55916;BME280;41826;53.246;-6.670;2023-02-12T07:23:27;102969.09;;;8.29;100.00
55916;BME280;41826;53.246;-6.670;2023-02-12T07:26:06;102970.41;;;8.20;100.00
55916;BME280;41826;53.246;-6.670;2023-02-12T07:28:32;102969.97;;;8.11;100.00
55916;BME280;41826;53.246;-6.670;2023-02-12T07:30:59;102969.63;;;8.18;100.00
55916;BME280;41826;53.246;-6.670;2023-02-12T07:33:24;102978.88;;;8.25;100.00
55916;BME280;41826;53.246;-6.670;2023-02-12T07:35:50;102968.69;;;8.19;100.00
55916;BME280;41826;53.246;-6.670;2023-02-12T07:38:15;102967.25;;;8.12;100.00
55916;BME280;41826;53.246;-6.670;2023-02-12T07:40:41;102978.38;;;8.17;100.00
55916;BME280;41826;53.246;-6.670;2023-02-12T07:43:06;102976.97;;;8.10;100.00
55916;BME280;41826;53.246;-6.670;2023-02-12T07:45:31;102988.34;;;8.28;100.00
55916;BME280;41826;53.246;-6.670;2023-02-12T07:47:57;102979.16;;;8.19;100.00
55916;BME280;41826;53.246;-6.670;2023-02-12T07:50:22;102983.53;;;8.19;100.00
55916;BME280;41826;53.246;-6.670;2023-02-12T07:52:48;102983.59;;;8.17;100.00
55916;BME280;41826;53.246;-6.670;2023-02-12T07:55:16;102989.09;;;8.30;100.00
55916;BME280;41826;53.246;-6.670;2023-02-12T07:57:42;102995.41;;;8.26;100.00
55916;BME280;41826;53.246;-6.670;2023-02-12T08:00:08;102999.19;;;8.20;100.00
55916;BME280;41826;53.246;-6.670;2023-02-12T08:02:34;103000.44;;;8.31;100.00
55916;BME280;41826;53.246;-6.670;2023-02-12T08:04:59;103006.09;;;8.40;100.00
55916;BME280;41826;53.246;-6.670;2023-02-12T08:07:25;102995.69;;;8.20;100.00
55916;BME280;41826;53.246;-6.670;2023-02-12T08:09:51;103000.56;;;8.28;100.00
55916;BME280;41826;53.246;-6.670;2023-02-12T08:12:17;103000.34;;;8.32;100.00
55916;BME280;41826;53.246;-6.670;2023-02-12T08:14:43;103000.66;;;8.26;100.00
55916;BME280;41826;53.246;-6.670;2023-02-12T08:17:09;102999.56;;;8.30;100.00
55916;BME280;41826;53.246;-6.670;2023-02-12T08:19:34;103003.63;;;8.18;100.00
55916;BME280;41826;53.246;-6.670;2023-02-12T08:22:00;103005.44;;;8.35;100.00
55916;BME280;41826;53.246;-6.670;2023-02-12T08:24:27;103003.91;;;8.31;100.00
55916;BME280;41826;53.246;-6.670;2023-02-12T08:26:54;102995.31;;;8.28;100.00
55916;BME280;41826;53.246;-6.670;2023-02-12T08:29:25;102996.25;;;8.27;100.00
55916;BME280;41826;53.246;-6.670;2023-02-12T08:31:57;102982.97;;;8.31;100.00
55916;BME280;41826;53.246;-6.670;2023-02-12T08:34:26;102992.59;;;8.31;100.00
55916;BME280;41826;53.246;-6.670;2023-02-12T08:36:53;102990.72;;;8.33;100.00
55916;BME280;41826;53.246;-6.670;2023-02-12T08:39:19;102984.16;;;8.24;100.00
55916;BME280;41826;53.246;-6.670;2023-02-12T08:41:45;102987.47;;;8.28;100.00
55916;BME280;41826;53.246;-6.670;2023-02-12T08:44:11;102977.47;;;8.18;100.00
55916;BME280;41826;53.246;-6.670;2023-02-12T08:46:41;102973.63;;;8.25;100.00
55916;BME280;41826;53.246;-6.670;2023-02-12T08:49:11;102968.88;;;8.34;100.00
55916;BME280;41826;53.246;-6.670;2023-02-12T08:51:40;102959.94;;;8.20;100.00
55916;BME280;41826;53.246;-6.670;2023-02-12T08:54:11;102971.78;;;8.28;100.00
55916;BME280;41826;53.246;-6.670;2023-02-12T08:56:36;102963.50;;;8.37;100.00
55916;BME280;41826;53.246;-6.670;2023-02-12T08:59:03;102950.84;;;8.28;100.00
55916;BME280;41826;53.246;-6.670;2023-02-12T09:01:30;102957.94;;;8.44;100.00
55916;BME280;41826;53.246;-6.670;2023-02-12T09:03:58;102973.03;;;8.38;100.00
55916;BME280;41826;53.246;-6.670;2023-02-12T09:06:24;102955.09;;;8.30;100.00
55916;BME280;41826;53.246;-6.670;2023-02-12T09:08:50;102956.63;;;8.53;100.00
55916;BME280;41826;53.246;-6.670;2023-02-12T09:11:19;102952.09;;;8.38;100.00
55916;BME280;41826;53.246;-6.670;2023-02-12T09:13:46;102966.50;;;8.65;100.00
55916;BME280;41826;53.246;-6.670;2023-02-12T09:16:12;102971.53;;;8.70;100.00
55916;BME280;41826;53.246;-6.670;2023-02-12T09:18:38;102955.63;;;8.56;100.00
55916;BME280;41826;53.246;-6.670;2023-02-12T09:21:11;102934.16;;;8.49;100.00
55916;BME280;41826;53.246;-6.670;2023-02-12T09:23:37;102907.84;;;8.33;100.00
55916;BME280;41826;53.246;-6.670;2023-02-12T09:26:05;102919.91;;;8.55;100.00
55916;BME280;41826;53.246;-6.670;2023-02-12T09:28:30;102909.44;;;8.55;100.00
55916;BME280;41826;53.246;-6.670;2023-02-12T09:30:56;102912.28;;;8.50;100.00
55916;BME280;41826;53.246;-6.670;2023-02-12T09:33:22;102927.56;;;8.77;100.00
55916;BME280;41826;53.246;-6.670;2023-02-12T09:35:47;102919.06;;;8.54;100.00
55916;BME280;41826;53.246;-6.670;2023-02-12T09:38:13;102921.53;;;8.75;100.00
55916;BME280;41826;53.246;-6.670;2023-02-12T09:46:31;102871.78;;;8.57;100.00
55916;BME280;41826;53.246;-6.670;2023-02-12T09:51:49;102841.00;;;8.62;100.00
55916;BME280;41826;53.246;-6.670;2023-02-12T09:54:19;102829.28;;;8.70;100.00
55916;BME280;41826;53.246;-6.670;2023-02-12T09:56:54;102825.00;;;8.51;100.00
55916;BME280;41826;53.246;-6.670;2023-02-12T09:59:29;102816.78;;;8.75;100.00
55916;BME280;41826;53.246;-6.670;2023-02-12T10:01:58;102845.88;;;8.86;100.00
55916;BME280;41826;53.246;-6.670;2023-02-12T10:04:25;102825.59;;;8.74;100.00
55916;BME280;41826;53.246;-6.670;2023-02-12T10:07:01;102821.09;;;8.76;100.00
55916;BME280;41826;53.246;-6.670;2023-02-12T10:09:33;102803.88;;;8.72;100.00
55916;BME280;41826;53.246;-6.670;2023-02-12T10:14:43;102805.25;;;8.79;100.00
55916;BME280;41826;53.246;-6.670;2023-02-12T10:17:25;102831.38;;;8.96;100.00
55916;BME280;41826;53.246;-6.670;2023-02-12T10:27:55;102792.06;;;8.80;100.00
55916;BME280;41826;53.246;-6.670;2023-02-12T10:30:34;102777.34;;;8.78;100.00
55916;BME280;41826;53.246;-6.670;2023-02-12T10:33:08;102771.47;;;8.90;100.00
55916;BME280;41826;53.246;-6.670;2023-02-12T10:35:44;102779.94;;;8.95;100.00
55916;BME280;41826;53.246;-6.670;2023-02-12T10:38:18;102789.53;;;8.79;100.00
55916;BME280;41826;53.246;-6.670;2023-02-12T10:40:44;102783.19;;;8.83;100.00
55916;BME280;41826;53.246;-6.670;2023-02-12T10:43:11;102766.44;;;8.70;100.00
55916;BME280;41826;53.246;-6.670;2023-02-12T10:45:39;102777.19;;;8.81;100.00
55916;BME280;41826;53.246;-6.670;2023-02-12T10:48:10;102780.75;;;8.80;100.00
55916;BME280;41826;53.246;-6.670;2023-02-12T10:53:39;102794.16;;;9.23;100.00
55916;BME280;41826;53.246;-6.670;2023-02-12T10:58:39;102792.13;;;9.12;100.00
55916;BME280;41826;53.246;-6.670;2023-02-12T11:01:15;102782.22;;;9.01;100.00
55916;BME280;41826;53.246;-6.670;2023-02-12T11:03:41;102777.84;;;9.18;100.00
55916;BME280;41826;53.246;-6.670;2023-02-12T11:06:18;102773.88;;;9.26;100.00
55916;BME280;41826;53.246;-6.670;2023-02-12T11:08:45;102773.63;;;9.31;100.00
55916;BME280;41826;53.246;-6.670;2023-02-12T11:11:15;102744.38;;;9.07;100.00
55916;BME280;41826;53.246;-6.670;2023-02-12T11:13:44;102754.78;;;9.24;100.00
55916;BME280;41826;53.246;-6.670;2023-02-12T11:16:11;102741.09;;;9.19;100.00
55916;BME280;41826;53.246;-6.670;2023-02-12T11:18:37;102724.34;;;9.22;100.00
55916;BME280;41826;53.246;-6.670;2023-02-12T11:21:10;102721.31;;;9.29;100.00
55916;BME280;41826;53.246;-6.670;2023-02-12T11:23:39;102699.00;;;9.06;100.00
55916;BME280;41826;53.246;-6.670;2023-02-12T11:29:04;102725.59;;;9.30;100.00
55916;BME280;41826;53.246;-6.670;2023-02-12T11:31:41;102700.78;;;9.22;100.00
55916;BME280;41826;53.246;-6.670;2023-02-12T11:34:17;102698.81;;;9.25;100.00
55916;BME280;41826;53.246;-6.670;2023-02-12T11:36:51;102713.59;;;9.42;100.00
55916;BME280;41826;53.246;-6.670;2023-02-12T11:41:52;102704.72;;;9.29;100.00
55916;BME280;41826;53.246;-6.670;2023-02-12T11:46:58;102705.63;;;9.44;100.00
55916;BME280;41826;53.246;-6.670;2023-02-12T11:49:31;102703.69;;;9.31;100.00
55916;BME280;41826;53.246;-6.670;2023-02-12T11:51:59;102688.47;;;9.38;100.00
55916;BME280;41826;53.246;-6.670;2023-02-12T11:54:27;102682.84;;;9.30;100.00
55916;BME280;41826;53.246;-6.670;2023-02-12T11:56:54;102684.59;;;9.45;100.00
55916;BME280;41826;53.246;-6.670;2023-02-12T11:59:46;102682.22;;;9.41;100.00
55916;BME280;41826;53.246;-6.670;2023-02-12T12:02:24;102666.31;;;9.44;100.00
55916;BME280;41826;53.246;-6.670;2023-02-12T12:04:55;102658.19;;;9.48;100.00
55916;BME280;41826;53.246;-6.670;2023-02-12T12:07:31;102688.44;;;9.70;100.00
55916;BME280;41826;53.246;-6.670;2023-02-12T12:10:29;102701.94;;;9.78;100.00
55916;BME280;41826;53.246;-6.670;2023-02-12T12:13:00;102707.00;;;9.81;100.00
55916;BME280;41826;53.246;-6.670;2023-02-12T12:15:31;102664.78;;;9.86;100.00
55916;BME280;41826;53.246;-6.670;2023-02-12T12:18:43;102644.81;;;9.83;100.00
55916;BME280;41826;53.246;-6.670;2023-02-12T12:22:02;102612.09;;;9.74;100.00
55916;BME280;41826;53.246;-6.670;2023-02-12T12:24:38;102578.91;;;9.45;100.00
55916;BME280;41826;53.246;-6.670;2023-02-12T12:27:44;102569.06;;;9.48;100.00
55916;BME280;41826;53.246;-6.670;2023-02-12T12:33:47;102570.19;;;9.59;100.00
55916;BME280;41826;53.246;-6.670;2023-02-12T12:41:40;102570.41;;;9.84;100.00
55916;BME280;41826;53.246;-6.670;2023-02-12T12:47:14;102566.97;;;9.98;100.00
55916;BME280;41826;53.246;-6.670;2023-02-12T12:55:15;102510.19;;;9.68;100.00
55916;BME280;41826;53.246;-6.670;2023-02-12T13:03:04;102503.34;;;9.66;100.00
55916;BME280;41826;53.246;-6.670;2023-02-12T13:08:49;102494.91;;;9.61;100.00
55916;BME280;41826;53.246;-6.670;2023-02-12T13:18:08;102494.06;;;9.46;100.00
55916;BME280;41826;53.246;-6.670;2023-02-12T13:21:02;102488.53;;;9.50;100.00
55916;BME280;41826;53.246;-6.670;2023-02-12T13:26:15;102505.59;;;9.72;100.00
55916;BME280;41826;53.246;-6.670;2023-02-12T13:28:47;102488.00;;;9.60;100.00
55916;BME280;41826;53.246;-6.670;2023-02-12T13:31:20;102496.88;;;9.71;100.00
55916;BME280;41826;53.246;-6.670;2023-02-12T13:33:53;102490.91;;;9.55;100.00
55916;BME280;41826;53.246;-6.670;2023-02-12T13:36:19;102523.00;;;9.87;100.00
55916;BME280;41826;53.246;-6.670;2023-02-12T13:38:59;102519.28;;;9.91;100.00
55916;BME280;41826;53.246;-6.670;2023-02-12T13:41:28;102560.13;;;10.24;100.00
55916;BME280;41826;53.246;-6.670;2023-02-12T13:44:15;102529.56;;;9.94;100.00
55916;BME280;41826;53.246;-6.670;2023-02-12T13:46:58;102526.41;;;9.75;100.00
55916;BME280;41826;53.246;-6.670;2023-02-12T13:49:53;102556.56;;;10.11;100.00
55916;BME280;41826;53.246;-6.670;2023-02-12T13:52:47;102543.84;;;9.90;100.00
55916;BME280;41826;53.246;-6.670;2023-02-12T13:55:42;102558.06;;;10.01;100.00
55916;BME280;41826;53.246;-6.670;2023-02-12T14:01:11;102562.94;;;10.07;100.00
55916;BME280;41826;53.246;-6.670;2023-02-12T14:03:37;102563.59;;;9.96;100.00
55916;BME280;41826;53.246;-6.670;2023-02-12T14:08:41;102557.19;;;9.71;100.00
55916;BME280;41826;53.246;-6.670;2023-02-12T14:11:13;102551.13;;;9.71;100.00
55916;BME280;41826;53.246;-6.670;2023-02-12T14:16:22;102539.63;;;9.88;100.00
55916;BME280;41826;53.246;-6.670;2023-02-12T14:22:10;102558.06;;;9.86;100.00
55916;BME280;41826;53.246;-6.670;2023-02-12T14:37:54;102571.16;;;9.72;100.00
55916;BME280;41826;53.246;-6.670;2023-02-12T14:42:59;102571.03;;;9.59;100.00
55916;BME280;41826;53.246;-6.670;2023-02-12T14:45:33;102579.59;;;9.63;100.00
55916;BME280;41826;53.246;-6.670;2023-02-12T14:48:00;102584.44;;;9.54;100.00
55916;BME280;41826;53.246;-6.670;2023-02-12T14:50:46;102572.38;;;9.36;100.00
55916;BME280;41826;53.246;-6.670;2023-02-12T14:53:34;102575.19;;;9.63;100.00
55916;BME280;41826;53.246;-6.670;2023-02-12T14:56:03;102570.19;;;9.59;100.00
55916;BME280;41826;53.246;-6.670;2023-02-12T14:58:31;102565.38;;;9.37;100.00
55916;BME280;41826;53.246;-6.670;2023-02-12T15:00:58;102557.84;;;9.61;100.00
55916;BME280;41826;53.246;-6.670;2023-02-12T15:03:48;102560.75;;;9.56;100.00
55916;BME280;41826;53.246;-6.670;2023-02-12T15:06:18;102552.50;;;9.48;100.00
55916;BME280;41826;53.246;-6.670;2023-02-12T15:08:56;102549.34;;;9.57;100.00